sensor_id;sensor_type;location;lat;lon;timestamp;P1;durP1;ratioP1;P2;durP2;ratioP2
33987;SDS011;37428;53.580;-1.666;2023-07-22T00:00:14;3.00;;;2.70;;
33987;SDS011;37428;53.580;-1.666;2023-07-22T00:03:40;2.67;;;2.47;;
33987;SDS011;37428;53.580;-1.666;2023-07-22T00:07:18;3.05;;;2.28;;
33987;SDS011;37428;53.580;-1.666;2023-07-22T00:10:22;3.15;;;2.30;;
33987;SDS011;37428;53.580;-1.666;2023-07-22T00:13:24;2.85;;;2.08;;
33987;SDS011;37428;53.580;-1.666;2023-07-22T00:16:37;4.15;;;2.65;;
33987;SDS011;37428;53.580;-1.666;2023-07-22T00:23:20;4.30;;;3.20;;
33987;SDS011;37428;53.580;-1.666;2023-07-22T00:26:38;3.25;;;2.95;;
33987;SDS011;37428;53.580;-1.666;2023-07-22T00:33:30;6.82;;;3.05;;
33987;SDS011;37428;53.580;-1.666;2023-07-22T00:36:36;4.72;;;2.65;;
33987;SDS011;37428;53.580;-1.666;2023-07-22T00:39:45;5.78;;;3.22;;
33987;SDS011;37428;53.580;-1.666;2023-07-22T00:44:24;4.47;;;3.30;;
33987;SDS011;37428;53.580;-1.666;2023-07-22T00:46:13;4.22;;;3.15;;
33987;SDS011;37428;53.580;-1.666;2023-07-22T00:49:20;4.65;;;3.33;;
33987;SDS011;37428;53.580;-1.666;2023-07-22T00:52:25;4.63;;;3.50;;
33987;SDS011;37428;53.580;-1.666;2023-07-22T00:59:14;5.97;;;3.85;;
33987;SDS011;37428;53.580;-1.666;2023-07-22T01:02:29;2.20;;;2.00;;
33987;SDS011;37428;53.580;-1.666;2023-07-22T01:05:35;4.20;;;2.58;;
33987;SDS011;37428;53.580;-1.666;2023-07-22T01:09:02;3.53;;;3.22;;
33987;SDS011;37428;53.580;-1.666;2023-07-22T01:12:13;3.92;;;3.22;;
33987;SDS011;37428;53.580;-1.666;2023-07-22T01:19:04;3.30;;;3.00;;
33987;SDS011;37428;53.580;-1.666;2023-07-22T01:22:09;2.85;;;2.60;;
33987;SDS011;37428;53.580;-1.666;2023-07-22T01:29:30;5.93;;;3.08;;
33987;SDS011;37428;53.580;-1.666;2023-07-22T01:32:59;2.03;;;1.83;;
33987;SDS011;37428;53.580;-1.666;2023-07-22T01:36:35;2.05;;;1.80;;
33987;SDS011;37428;53.580;-1.666;2023-07-22T01:44:12;2.95;;;1.77;;
33987;SDS011;37428;53.580;-1.666;2023-07-22T01:48:02;2.95;;;1.88;;
33987;SDS011;37428;53.580;-1.666;2023-07-22T01:51:11;3.47;;;1.77;;
33987;SDS011;37428;53.580;-1.666;2023-07-22T01:58:03;1.38;;;1.10;;
33987;SDS011;37428;53.580;-1.666;2023-07-22T02:01:39;1.50;;;1.33;;
33987;SDS011;37428;53.580;-1.666;2023-07-22T02:04:41;2.13;;;1.52;;
33987;SDS011;37428;53.580;-1.666;2023-07-22T02:08:15;1.30;;;1.20;;
33987;SDS011;37428;53.580;-1.666;2023-07-22T02:11:51;1.52;;;1.05;;
33987;SDS011;37428;53.580;-1.666;2023-07-22T02:14:40;1.02;;;0.90;;
33987;SDS011;37428;53.580;-1.666;2023-07-22T02:21:05;1.38;;;0.80;;
33987;SDS011;37428;53.580;-1.666;2023-07-22T02:24:23;1.15;;;0.90;;
33987;SDS011;37428;53.580;-1.666;2023-07-22T02:27:51;1.45;;;1.00;;
33987;SDS011;37428;53.580;-1.666;2023-07-22T02:30:55;2.90;;;0.80;;
33987;SDS011;37428;53.580;-1.666;2023-07-22T02:37:32;1.27;;;0.70;;
33987;SDS011;37428;53.580;-1.666;2023-07-22T02:40:41;2.25;;;0.80;;
33987;SDS011;37428;53.580;-1.666;2023-07-22T02:43:46;2.25;;;0.60;;
33987;SDS011;37428;53.580;-1.666;2023-07-22T02:47:07;1.27;;;0.55;;
33987;SDS011;37428;53.580;-1.666;2023-07-22T02:50:31;0.70;;;0.70;;
33987;SDS011;37428;53.580;-1.666;2023-07-22T02:53:39;1.20;;;0.60;;
33987;SDS011;37428;53.580;-1.666;2023-07-22T02:57:04;2.53;;;0.73;;
33987;SDS011;37428;53.580;-1.666;2023-07-22T03:00:09;3.42;;;0.60;;
33987;SDS011;37428;53.580;-1.666;2023-07-22T03:03:12;0.77;;;0.55;;
33987;SDS011;37428;53.580;-1.666;2023-07-22T03:06:32;0.70;;;0.60;;
33987;SDS011;37428;53.580;-1.666;2023-07-22T03:09:51;1.00;;;0.70;;
33987;SDS011;37428;53.580;-1.666;2023-07-22T03:13:26;0.70;;;0.60;;
33987;SDS011;37428;53.580;-1.666;2023-07-22T03:18:04;1.60;;;0.77;;
33987;SDS011;37428;53.580;-1.666;2023-07-22T03:20:29;2.05;;;0.70;;
33987;SDS011;37428;53.580;-1.666;2023-07-22T03:23:45;2.17;;;0.98;;
33987;SDS011;37428;53.580;-1.666;2023-07-22T03:30:33;2.28;;;0.80;;
33987;SDS011;37428;53.580;-1.666;2023-07-22T03:33:35;2.10;;;1.00;;
33987;SDS011;37428;53.580;-1.666;2023-07-22T03:38:25;1.02;;;0.90;;
33987;SDS011;37428;53.580;-1.666;2023-07-22T03:40:32;2.08;;;0.98;;
33987;SDS011;37428;53.580;-1.666;2023-07-22T03:43:48;0.95;;;0.77;;
33987;SDS011;37428;53.580;-1.666;2023-07-22T03:46:55;1.50;;;0.90;;
33987;SDS011;37428;53.580;-1.666;2023-07-22T03:50:44;0.82;;;0.70;;
33987;SDS011;37428;53.580;-1.666;2023-07-22T03:53:37;1.13;;;0.60;;
33987;SDS011;37428;53.580;-1.666;2023-07-22T03:56:40;0.82;;;0.82;;
33987;SDS011;37428;53.580;-1.666;2023-07-22T04:00:12;1.80;;;0.98;;
33987;SDS011;37428;53.580;-1.666;2023-07-22T04:03:38;1.77;;;0.90;;
33987;SDS011;37428;53.580;-1.666;2023-07-22T04:06:54;1.50;;;0.90;;
33987;SDS011;37428;53.580;-1.666;2023-07-22T04:10:02;1.58;;;0.80;;
33987;SDS011;37428;53.580;-1.666;2023-07-22T04:16:41;0.60;;;0.60;;
33987;SDS011;37428;53.580;-1.666;2023-07-22T04:20:17;2.15;;;1.00;;
33987;SDS011;37428;53.580;-1.666;2023-07-22T04:26:59;2.17;;;1.90;;
33987;SDS011;37428;53.580;-1.666;2023-07-22T04:30:17;5.68;;;2.90;;
33987;SDS011;37428;53.580;-1.666;2023-07-22T04:33:50;3.20;;;2.80;;
33987;SDS011;37428;53.580;-1.666;2023-07-22T04:37:13;3.85;;;3.08;;
33987;SDS011;37428;53.580;-1.666;2023-07-22T04:40:19;4.78;;;3.30;;
33987;SDS011;37428;53.580;-1.666;2023-07-22T04:43:49;3.95;;;3.00;;
33987;SDS011;37428;53.580;-1.666;2023-07-22T04:50:33;4.90;;;3.72;;
33987;SDS011;37428;53.580;-1.666;2023-07-22T04:53:35;5.10;;;3.47;;
33987;SDS011;37428;53.580;-1.666;2023-07-22T04:56:51;7.28;;;4.43;;
33987;SDS011;37428;53.580;-1.666;2023-07-22T05:00:17;5.72;;;4.47;;
33987;SDS011;37428;53.580;-1.666;2023-07-22T05:03:43;7.85;;;4.65;;
33987;SDS011;37428;53.580;-1.666;2023-07-22T05:07:00;4.93;;;4.43;;
33987;SDS011;37428;53.580;-1.666;2023-07-22T05:10:06;8.23;;;5.32;;
33987;SDS011;37428;53.580;-1.666;2023-07-22T05:13:12;6.20;;;5.03;;
33987;SDS011;37428;53.580;-1.666;2023-07-22T05:17:49;6.57;;;5.28;;
33987;SDS011;37428;53.580;-1.666;2023-07-22T05:23:33;7.43;;;5.53;;
33987;SDS011;37428;53.580;-1.666;2023-07-22T05:30:23;6.03;;;4.82;;
33987;SDS011;37428;53.580;-1.666;2023-07-22T05:34:01;5.97;;;5.00;;
33987;SDS011;37428;53.580;-1.666;2023-07-22T05:37:33;5.68;;;5.00;;
33987;SDS011;37428;53.580;-1.666;2023-07-22T05:41:09;4.70;;;4.30;;
33987;SDS011;37428;53.580;-1.666;2023-07-22T05:44:29;7.15;;;4.20;;
33987;SDS011;37428;53.580;-1.666;2023-07-22T05:47:54;3.83;;;3.42;;
33987;SDS011;37428;53.580;-1.666;2023-07-22T05:51:17;3.75;;;3.05;;
33987;SDS011;37428;53.580;-1.666;2023-07-22T05:54:35;4.00;;;3.28;;
33987;SDS011;37428;53.580;-1.666;2023-07-22T05:58:03;4.50;;;3.85;;
33987;SDS011;37428;53.580;-1.666;2023-07-22T06:01:22;3.88;;;3.45;;
33987;SDS011;37428;53.580;-1.666;2023-07-22T06:04:32;4.50;;;4.10;;
33987;SDS011;37428;53.580;-1.666;2023-07-22T06:07:37;5.55;;;3.53;;
33987;SDS011;37428;53.580;-1.666;2023-07-22T06:11:01;3.58;;;3.28;;
33987;SDS011;37428;53.580;-1.666;2023-07-22T06:14:14;3.75;;;3.33;;
33987;SDS011;37428;53.580;-1.666;2023-07-22T06:17:36;4.03;;;2.95;;
33987;SDS011;37428;53.580;-1.666;2023-07-22T06:22:14;2.60;;;2.40;;
33987;SDS011;37428;53.580;-1.666;2023-07-22T06:30:50;1.90;;;1.67;;
33987;SDS011;37428;53.580;-1.666;2023-07-22T06:34:23;1.60;;;1.50;;
33987;SDS011;37428;53.580;-1.666;2023-07-22T06:37:25;1.40;;;1.23;;
33987;SDS011;37428;53.580;-1.666;2023-07-22T06:40:34;1.63;;;1.52;;
33987;SDS011;37428;53.580;-1.666;2023-07-22T06:43:37;1.63;;;1.52;;
33987;SDS011;37428;53.580;-1.666;2023-07-22T06:46:48;1.77;;;1.27;;
33987;SDS011;37428;53.580;-1.666;2023-07-22T06:49:53;1.30;;;1.20;;
33987;SDS011;37428;53.580;-1.666;2023-07-22T06:53:07;1.45;;;1.33;;
33987;SDS011;37428;53.580;-1.666;2023-07-22T06:56:11;1.60;;;1.50;;
33987;SDS011;37428;53.580;-1.666;2023-07-22T06:59:21;2.38;;;2.17;;
33987;SDS011;37428;53.580;-1.666;2023-07-22T07:02:40;2.45;;;2.25;;
33987;SDS011;37428;53.580;-1.666;2023-07-22T07:06:09;2.03;;;1.83;;
33987;SDS011;37428;53.580;-1.666;2023-07-22T07:09:11;2.08;;;1.88;;
33987;SDS011;37428;53.580;-1.666;2023-07-22T07:12:36;1.77;;;1.67;;
33987;SDS011;37428;53.580;-1.666;2023-07-22T07:16:28;1.92;;;1.60;;
33987;SDS011;37428;53.580;-1.666;2023-07-22T07:23:25;1.23;;;1.13;;
33987;SDS011;37428;53.580;-1.666;2023-07-22T07:26:41;0.75;;;0.75;;
33987;SDS011;37428;53.580;-1.666;2023-07-22T07:29:50;0.73;;;0.73;;
33987;SDS011;37428;53.580;-1.666;2023-07-22T07:32:58;0.82;;;0.82;;
33987;SDS011;37428;53.580;-1.666;2023-07-22T07:36:24;0.75;;;0.75;;
33987;SDS011;37428;53.580;-1.666;2023-07-22T07:39:52;1.95;;;0.77;;
33987;SDS011;37428;53.580;-1.666;2023-07-22T07:43:06;1.25;;;0.77;;
33987;SDS011;37428;53.580;-1.666;2023-07-22T07:46:18;0.60;;;0.60;;
33987;SDS011;37428;53.580;-1.666;2023-07-22T07:49:56;0.68;;;0.68;;
33987;SDS011;37428;53.580;-1.666;2023-07-22T07:53:14;1.27;;;0.75;;
33987;SDS011;37428;53.580;-1.666;2023-07-22T07:56:26;0.90;;;0.90;;
33987;SDS011;37428;53.580;-1.666;2023-07-22T07:59:30;1.33;;;1.00;;
33987;SDS011;37428;53.580;-1.666;2023-07-22T08:02:56;2.03;;;1.20;;
33987;SDS011;37428;53.580;-1.666;2023-07-22T08:06:11;3.00;;;0.77;;
33987;SDS011;37428;53.580;-1.666;2023-07-22T08:12:20;2.35;;;0.80;;
33987;SDS011;37428;53.580;-1.666;2023-07-22T08:15:28;1.17;;;0.82;;
33987;SDS011;37428;53.580;-1.666;2023-07-22T08:18:33;0.70;;;0.70;;
33987;SDS011;37428;53.580;-1.666;2023-07-22T08:22:02;3.13;;;0.73;;
33987;SDS011;37428;53.580;-1.666;2023-07-22T08:25:10;1.00;;;0.85;;
33987;SDS011;37428;53.580;-1.666;2023-07-22T08:28:31;0.47;;;0.47;;
33987;SDS011;37428;53.580;-1.666;2023-07-22T08:31:33;0.57;;;0.55;;
33987;SDS011;37428;53.580;-1.666;2023-07-22T08:34:37;0.70;;;0.57;;
33987;SDS011;37428;53.580;-1.666;2023-07-22T08:37:41;1.05;;;0.90;;
33987;SDS011;37428;53.580;-1.666;2023-07-22T08:40:57;0.73;;;0.70;;
33987;SDS011;37428;53.580;-1.666;2023-07-22T08:44:19;0.60;;;0.47;;
33987;SDS011;37428;53.580;-1.666;2023-07-22T08:48:06;1.00;;;0.90;;
33987;SDS011;37428;53.580;-1.666;2023-07-22T08:54:44;0.57;;;0.57;;
33987;SDS011;37428;53.580;-1.666;2023-07-22T08:58:04;0.63;;;0.63;;
33987;SDS011;37428;53.580;-1.666;2023-07-22T09:01:16;0.88;;;0.50;;
33987;SDS011;37428;53.580;-1.666;2023-07-22T09:04:36;1.27;;;0.75;;
33987;SDS011;37428;53.580;-1.666;2023-07-22T09:11:29;0.65;;;0.65;;
33987;SDS011;37428;53.580;-1.666;2023-07-22T09:14:54;0.80;;;0.80;;
33987;SDS011;37428;53.580;-1.666;2023-07-22T09:18:27;0.52;;;0.52;;
33987;SDS011;37428;53.580;-1.666;2023-07-22T09:21:49;0.77;;;0.40;;
33987;SDS011;37428;53.580;-1.666;2023-07-22T09:24:54;1.00;;;0.88;;
33987;SDS011;37428;53.580;-1.666;2023-07-22T09:28:24;0.30;;;0.30;;
33987;SDS011;37428;53.580;-1.666;2023-07-22T09:31:26;0.40;;;0.40;;
33987;SDS011;37428;53.580;-1.666;2023-07-22T09:35:07;0.47;;;0.40;;
33987;SDS011;37428;53.580;-1.666;2023-07-22T09:38:24;0.65;;;0.55;;
33987;SDS011;37428;53.580;-1.666;2023-07-22T09:41:42;0.50;;;0.40;;
33987;SDS011;37428;53.580;-1.666;2023-07-22T09:48:37;0.43;;;0.20;;
33987;SDS011;37428;53.580;-1.666;2023-07-22T09:51:53;1.42;;;0.40;;
33987;SDS011;37428;53.580;-1.666;2023-07-22T09:55:06;0.28;;;0.28;;
33987;SDS011;37428;53.580;-1.666;2023-07-22T09:58:09;0.40;;;0.40;;
33987;SDS011;37428;53.580;-1.666;2023-07-22T10:09:14;0.38;;;0.30;;
33987;SDS011;37428;53.580;-1.666;2023-07-22T10:12:13;0.40;;;0.20;;
33987;SDS011;37428;53.580;-1.666;2023-07-22T10:15:28;0.82;;;0.30;;
33987;SDS011;37428;53.580;-1.666;2023-07-22T10:18:37;2.38;;;0.32;;
33987;SDS011;37428;53.580;-1.666;2023-07-22T10:22:24;0.30;;;0.30;;
33987;SDS011;37428;53.580;-1.666;2023-07-22T10:25:43;0.20;;;0.20;;
33987;SDS011;37428;53.580;-1.666;2023-07-22T10:29:03;0.30;;;0.20;;
33987;SDS011;37428;53.580;-1.666;2023-07-22T10:32:08;0.13;;;0.10;;
33987;SDS011;37428;53.580;-1.666;2023-07-22T10:35:23;0.38;;;0.20;;
33987;SDS011;37428;53.580;-1.666;2023-07-22T10:38:57;0.20;;;0.20;;
33987;SDS011;37428;53.580;-1.666;2023-07-22T10:42:16;0.20;;;0.20;;
33987;SDS011;37428;53.580;-1.666;2023-07-22T10:45:35;0.20;;;0.20;;
33987;SDS011;37428;53.580;-1.666;2023-07-22T10:49:08;0.25;;;0.20;;
33987;SDS011;37428;53.580;-1.666;2023-07-22T10:52:23;0.25;;;0.20;;
33987;SDS011;37428;53.580;-1.666;2023-07-22T10:56:10;0.40;;;0.22;;
33987;SDS011;37428;53.580;-1.666;2023-07-22T10:59:31;0.28;;;0.25;;
33987;SDS011;37428;53.580;-1.666;2023-07-22T11:02:36;0.50;;;0.50;;
33987;SDS011;37428;53.580;-1.666;2023-07-22T11:05:48;0.60;;;0.50;;
33987;SDS011;37428;53.580;-1.666;2023-07-22T11:12:37;0.52;;;0.52;;
33987;SDS011;37428;53.580;-1.666;2023-07-22T11:15:48;0.70;;;0.50;;
33987;SDS011;37428;53.580;-1.666;2023-07-22T11:19:03;0.50;;;0.40;;
33987;SDS011;37428;53.580;-1.666;2023-07-22T11:22:06;0.43;;;0.43;;
33987;SDS011;37428;53.580;-1.666;2023-07-22T11:25:17;0.73;;;0.73;;
33987;SDS011;37428;53.580;-1.666;2023-07-22T11:31:57;0.70;;;0.63;;
33987;SDS011;37428;53.580;-1.666;2023-07-22T11:35:14;1.67;;;0.68;;
33987;SDS011;37428;53.580;-1.666;2023-07-22T11:38:32;0.60;;;0.60;;
33987;SDS011;37428;53.580;-1.666;2023-07-22T11:41:37;0.68;;;0.68;;
33987;SDS011;37428;53.580;-1.666;2023-07-22T11:44:45;0.95;;;0.82;;
33987;SDS011;37428;53.580;-1.666;2023-07-22T11:47:47;0.70;;;0.70;;
33987;SDS011;37428;53.580;-1.666;2023-07-22T11:51:04;0.95;;;0.63;;
33987;SDS011;37428;53.580;-1.666;2023-07-22T11:54:39;0.93;;;0.93;;
33987;SDS011;37428;53.580;-1.666;2023-07-22T11:58:09;1.20;;;1.10;;
33987;SDS011;37428;53.580;-1.666;2023-07-22T12:01:17;1.10;;;1.00;;
33987;SDS011;37428;53.580;-1.666;2023-07-22T12:04:23;1.02;;;0.77;;
33987;SDS011;37428;53.580;-1.666;2023-07-22T12:08:15;1.13;;;1.00;;
33987;SDS011;37428;53.580;-1.666;2023-07-22T12:11:31;0.82;;;0.80;;
33987;SDS011;37428;53.580;-1.666;2023-07-22T12:14:54;2.63;;;1.23;;
33987;SDS011;37428;53.580;-1.666;2023-07-22T12:21:41;1.70;;;1.40;;
33987;SDS011;37428;53.580;-1.666;2023-07-22T12:24:55;2.30;;;1.00;;
33987;SDS011;37428;53.580;-1.666;2023-07-22T12:28:11;1.00;;;0.98;;
33987;SDS011;37428;53.580;-1.666;2023-07-22T12:31:50;1.27;;;0.77;;
33987;SDS011;37428;53.580;-1.666;2023-07-22T12:35:16;1.10;;;0.93;;
33987;SDS011;37428;53.580;-1.666;2023-07-22T12:38:48;1.10;;;0.98;;
33987;SDS011;37428;53.580;-1.666;2023-07-22T12:41:45;1.40;;;1.13;;
33987;SDS011;37428;53.580;-1.666;2023-07-22T12:44:56;1.17;;;1.17;;
33987;SDS011;37428;53.580;-1.666;2023-07-22T12:48:13;3.17;;;1.20;;
33987;SDS011;37428;53.580;-1.666;2023-07-22T12:51:35;1.90;;;1.00;;
33987;SDS011;37428;53.580;-1.666;2023-07-22T12:54:39;1.73;;;1.20;;
33987;SDS011;37428;53.580;-1.666;2023-07-22T12:57:42;1.60;;;0.95;;
33987;SDS011;37428;53.580;-1.666;2023-07-22T13:00:47;1.13;;;1.08;;
33987;SDS011;37428;53.580;-1.666;2023-07-22T13:04:22;1.30;;;1.20;;
33987;SDS011;37428;53.580;-1.666;2023-07-22T13:07:17;1.05;;;0.90;;
33987;SDS011;37428;53.580;-1.666;2023-07-22T13:10:23;1.27;;;1.17;;
33987;SDS011;37428;53.580;-1.666;2023-07-22T13:13:49;1.63;;;1.10;;
33987;SDS011;37428;53.580;-1.666;2023-07-22T13:17:11;1.60;;;1.20;;
33987;SDS011;37428;53.580;-1.666;2023-07-22T13:20:23;1.27;;;1.17;;
33987;SDS011;37428;53.580;-1.666;2023-07-22T13:23:26;2.17;;;1.23;;
33987;SDS011;37428;53.580;-1.666;2023-07-22T13:26:30;2.95;;;1.63;;
33987;SDS011;37428;53.580;-1.666;2023-07-22T13:29:34;1.63;;;1.52;;
33987;SDS011;37428;53.580;-1.666;2023-07-22T13:32:36;3.20;;;2.22;;
33987;SDS011;37428;53.580;-1.666;2023-07-22T13:35:41;1.63;;;1.52;;
33987;SDS011;37428;53.580;-1.666;2023-07-22T13:38:48;2.47;;;2.05;;
33987;SDS011;37428;53.580;-1.666;2023-07-22T13:41:56;2.90;;;1.85;;
33987;SDS011;37428;53.580;-1.666;2023-07-22T13:45:00;1.75;;;1.65;;
33987;SDS011;37428;53.580;-1.666;2023-07-22T13:48:33;2.97;;;1.77;;
33987;SDS011;37428;53.580;-1.666;2023-07-22T13:51:37;2.90;;;1.60;;
33987;SDS011;37428;53.580;-1.666;2023-07-22T13:54:43;3.15;;;1.75;;
33987;SDS011;37428;53.580;-1.666;2023-07-22T13:57:45;2.60;;;1.67;;
33987;SDS011;37428;53.580;-1.666;2023-07-22T14:00:47;1.98;;;1.85;;
33987;SDS011;37428;53.580;-1.666;2023-07-22T14:04:04;1.90;;;1.80;;
33987;SDS011;37428;53.580;-1.666;2023-07-22T14:07:30;1.88;;;1.77;;
33987;SDS011;37428;53.580;-1.666;2023-07-22T14:10:38;2.55;;;1.85;;
33987;SDS011;37428;53.580;-1.666;2023-07-22T14:13:54;1.73;;;1.63;;
33987;SDS011;37428;53.580;-1.666;2023-07-22T14:17:06;2.33;;;2.08;;
33987;SDS011;37428;53.580;-1.666;2023-07-22T14:20:16;2.10;;;1.90;;
33987;SDS011;37428;53.580;-1.666;2023-07-22T14:23:44;2.03;;;1.83;;
33987;SDS011;37428;53.580;-1.666;2023-07-22T14:27:14;1.90;;;1.77;;
33987;SDS011;37428;53.580;-1.666;2023-07-22T14:30:16;1.30;;;1.20;;
33987;SDS011;37428;53.580;-1.666;2023-07-22T14:33:20;1.25;;;1.23;;
33987;SDS011;37428;53.580;-1.666;2023-07-22T14:36:25;1.23;;;1.13;;
33987;SDS011;37428;53.580;-1.666;2023-07-22T14:39:27;3.10;;;1.10;;
33987;SDS011;37428;53.580;-1.666;2023-07-22T14:42:31;1.00;;;1.00;;
33987;SDS011;37428;53.580;-1.666;2023-07-22T14:45:34;0.93;;;0.90;;
33987;SDS011;37428;53.580;-1.666;2023-07-22T14:52:11;1.05;;;1.05;;
33987;SDS011;37428;53.580;-1.666;2023-07-22T14:55:13;1.63;;;1.52;;
33987;SDS011;37428;53.580;-1.666;2023-07-22T14:58:20;1.40;;;1.30;;
33987;SDS011;37428;53.580;-1.666;2023-07-22T15:02:05;1.20;;;1.10;;
33987;SDS011;37428;53.580;-1.666;2023-07-22T15:04:58;1.10;;;1.10;;
33987;SDS011;37428;53.580;-1.666;2023-07-22T15:08:19;0.90;;;0.90;;
33987;SDS011;37428;53.580;-1.666;2023-07-22T15:11:24;0.63;;;0.63;;
33987;SDS011;37428;53.580;-1.666;2023-07-22T15:14:45;0.60;;;0.60;;
33987;SDS011;37428;53.580;-1.666;2023-07-22T15:17:49;0.50;;;0.50;;
33987;SDS011;37428;53.580;-1.666;2023-07-22T15:20:52;0.85;;;0.85;;
33987;SDS011;37428;53.580;-1.666;2023-07-22T15:24:08;0.60;;;0.60;;
33987;SDS011;37428;53.580;-1.666;2023-07-22T15:27:42;0.60;;;0.60;;
33987;SDS011;37428;53.580;-1.666;2023-07-22T15:34:07;0.63;;;0.63;;
33987;SDS011;37428;53.580;-1.666;2023-07-22T15:37:46;0.45;;;0.45;;
33987;SDS011;37428;53.580;-1.666;2023-07-22T15:40:40;0.32;;;0.32;;
33987;SDS011;37428;53.580;-1.666;2023-07-22T15:44:03;0.40;;;0.40;;
33987;SDS011;37428;53.580;-1.666;2023-07-22T15:50:49;0.65;;;0.40;;
33987;SDS011;37428;53.580;-1.666;2023-07-22T15:54:03;1.45;;;0.20;;
33987;SDS011;37428;53.580;-1.666;2023-07-22T15:57:35;0.60;;;0.60;;
33987;SDS011;37428;53.580;-1.666;2023-07-22T16:00:52;0.40;;;0.40;;
33987;SDS011;37428;53.580;-1.666;2023-07-22T16:04:15;0.60;;;0.60;;
33987;SDS011;37428;53.580;-1.666;2023-07-22T16:07:38;0.70;;;0.40;;
33987;SDS011;37428;53.580;-1.666;2023-07-22T16:10:58;0.65;;;0.50;;
33987;SDS011;37428;53.580;-1.666;2023-07-22T16:14:21;2.88;;;0.60;;
33987;SDS011;37428;53.580;-1.666;2023-07-22T16:17:25;0.85;;;0.45;;
33987;SDS011;37428;53.580;-1.666;2023-07-22T16:20:35;0.55;;;0.55;;
33987;SDS011;37428;53.580;-1.666;2023-07-22T16:24:17;0.40;;;0.40;;
33987;SDS011;37428;53.580;-1.666;2023-07-22T16:27:26;0.60;;;0.60;;
33987;SDS011;37428;53.580;-1.666;2023-07-22T16:30:34;0.52;;;0.40;;
33987;SDS011;37428;53.580;-1.666;2023-07-22T16:34:01;0.43;;;0.43;;
33987;SDS011;37428;53.580;-1.666;2023-07-22T16:37:07;0.65;;;0.50;;
33987;SDS011;37428;53.580;-1.666;2023-07-22T16:40:22;0.50;;;0.50;;
33987;SDS011;37428;53.580;-1.666;2023-07-22T16:43:36;0.40;;;0.40;;
33987;SDS011;37428;53.580;-1.666;2023-07-22T16:46:48;0.70;;;0.50;;
33987;SDS011;37428;53.580;-1.666;2023-07-22T16:49:51;0.30;;;0.30;;
33987;SDS011;37428;53.580;-1.666;2023-07-22T16:52:56;0.40;;;0.40;;
33987;SDS011;37428;53.580;-1.666;2023-07-22T16:56:03;1.08;;;0.47;;
33987;SDS011;37428;53.580;-1.666;2023-07-22T16:59:37;0.30;;;0.30;;
33987;SDS011;37428;53.580;-1.666;2023-07-22T17:02:41;0.30;;;0.30;;
33987;SDS011;37428;53.580;-1.666;2023-07-22T17:05:46;0.20;;;0.20;;
33987;SDS011;37428;53.580;-1.666;2023-07-22T17:09:04;0.60;;;0.20;;
33987;SDS011;37428;53.580;-1.666;2023-07-22T17:12:07;0.40;;;0.20;;
33987;SDS011;37428;53.580;-1.666;2023-07-22T17:15:11;0.77;;;0.20;;
33987;SDS011;37428;53.580;-1.666;2023-07-22T17:18:34;0.95;;;0.20;;
33987;SDS011;37428;53.580;-1.666;2023-07-22T17:21:38;0.80;;;0.13;;
33987;SDS011;37428;53.580;-1.666;2023-07-22T17:24:41;0.40;;;0.30;;
33987;SDS011;37428;53.580;-1.666;2023-07-22T17:27:43;1.48;;;0.10;;
33987;SDS011;37428;53.580;-1.666;2023-07-22T17:30:47;0.32;;;0.32;;
33987;SDS011;37428;53.580;-1.666;2023-07-22T17:33:50;0.30;;;0.30;;
33987;SDS011;37428;53.580;-1.666;2023-07-22T17:37:08;0.30;;;0.30;;
33987;SDS011;37428;53.580;-1.666;2023-07-22T17:40:16;0.40;;;0.30;;
33987;SDS011;37428;53.580;-1.666;2023-07-22T17:43:56;0.30;;;0.30;;
33987;SDS011;37428;53.580;-1.666;2023-07-22T17:47:02;0.30;;;0.28;;
33987;SDS011;37428;53.580;-1.666;2023-07-22T17:50:05;0.30;;;0.30;;
33987;SDS011;37428;53.580;-1.666;2023-07-22T17:53:08;0.20;;;0.20;;
33987;SDS011;37428;53.580;-1.666;2023-07-22T17:56:12;0.43;;;0.40;;
33987;SDS011;37428;53.580;-1.666;2023-07-22T17:59:16;0.52;;;0.50;;
33987;SDS011;37428;53.580;-1.666;2023-07-22T18:02:20;0.57;;;0.40;;
33987;SDS011;37428;53.580;-1.666;2023-07-22T18:05:29;0.45;;;0.45;;
33987;SDS011;37428;53.580;-1.666;2023-07-22T18:08:54;0.60;;;0.60;;
33987;SDS011;37428;53.580;-1.666;2023-07-22T18:11:58;1.75;;;0.50;;
33987;SDS011;37428;53.580;-1.666;2023-07-22T18:15:08;0.70;;;0.70;;
33987;SDS011;37428;53.580;-1.666;2023-07-22T18:18:26;0.80;;;0.80;;
33987;SDS011;37428;53.580;-1.666;2023-07-22T18:21:35;0.95;;;0.88;;
33987;SDS011;37428;53.580;-1.666;2023-07-22T18:24:44;0.70;;;0.70;;
33987;SDS011;37428;53.580;-1.666;2023-07-22T18:27:53;0.80;;;0.60;;
33987;SDS011;37428;53.580;-1.666;2023-07-22T18:31:19;0.75;;;0.75;;
33987;SDS011;37428;53.580;-1.666;2023-07-22T18:34:56;0.80;;;0.77;;
33987;SDS011;37428;53.580;-1.666;2023-07-22T18:38:02;1.60;;;0.73;;
33987;SDS011;37428;53.580;-1.666;2023-07-22T18:41:12;1.90;;;0.60;;
33987;SDS011;37428;53.580;-1.666;2023-07-22T18:44:28;0.70;;;0.70;;
33987;SDS011;37428;53.580;-1.666;2023-07-22T18:47:59;0.70;;;0.70;;
33987;SDS011;37428;53.580;-1.666;2023-07-22T18:51:20;1.83;;;0.75;;
33987;SDS011;37428;53.580;-1.666;2023-07-22T18:57:54;1.52;;;0.80;;
33987;SDS011;37428;53.580;-1.666;2023-07-22T19:04:29;1.40;;;1.30;;
33987;SDS011;37428;53.580;-1.666;2023-07-22T19:07:32;2.85;;;0.90;;
33987;SDS011;37428;53.580;-1.666;2023-07-22T19:10:56;0.98;;;0.90;;
33987;SDS011;37428;53.580;-1.666;2023-07-22T19:14:10;0.70;;;0.70;;
33987;SDS011;37428;53.580;-1.666;2023-07-22T19:17:14;0.98;;;0.98;;
33987;SDS011;37428;53.580;-1.666;2023-07-22T19:20:39;0.70;;;0.70;;
33987;SDS011;37428;53.580;-1.666;2023-07-22T19:23:43;1.75;;;0.90;;
33987;SDS011;37428;53.580;-1.666;2023-07-22T19:26:45;1.17;;;1.10;;
33987;SDS011;37428;53.580;-1.666;2023-07-22T19:29:58;2.05;;;1.38;;
33987;SDS011;37428;53.580;-1.666;2023-07-22T19:33:25;1.00;;;1.00;;
33987;SDS011;37428;53.580;-1.666;2023-07-22T19:36:30;2.30;;;1.30;;
33987;SDS011;37428;53.580;-1.666;2023-07-22T19:40:01;1.40;;;1.30;;
33987;SDS011;37428;53.580;-1.666;2023-07-22T19:43:05;2.30;;;2.20;;
33987;SDS011;37428;53.580;-1.666;2023-07-22T19:46:25;3.45;;;3.13;;
33987;SDS011;37428;53.580;-1.666;2023-07-22T19:49:27;4.65;;;4.35;;
33987;SDS011;37428;53.580;-1.666;2023-07-22T19:52:52;5.57;;;4.22;;
33987;SDS011;37428;53.580;-1.666;2023-07-22T19:55:58;4.47;;;4.18;;
33987;SDS011;37428;53.580;-1.666;2023-07-22T19:59:12;7.85;;;7.03;;
33987;SDS011;37428;53.580;-1.666;2023-07-22T20:02:15;9.65;;;8.20;;
33987;SDS011;37428;53.580;-1.666;2023-07-22T20:05:47;9.70;;;8.15;;
33987;SDS011;37428;53.580;-1.666;2023-07-22T20:08:42;6.45;;;4.93;;
33987;SDS011;37428;53.580;-1.666;2023-07-22T20:12:02;2.33;;;2.13;;
33987;SDS011;37428;53.580;-1.666;2023-07-22T20:15:11;2.60;;;2.30;;
33987;SDS011;37428;53.580;-1.666;2023-07-22T20:18:15;3.17;;;2.90;;
33987;SDS011;37428;53.580;-1.666;2023-07-22T20:21:18;2.80;;;2.60;;
33987;SDS011;37428;53.580;-1.666;2023-07-22T20:24:25;2.30;;;2.10;;
33987;SDS011;37428;53.580;-1.666;2023-07-22T20:27:27;1.35;;;1.20;;
33987;SDS011;37428;53.580;-1.666;2023-07-22T20:30:44;1.92;;;1.20;;
33987;SDS011;37428;53.580;-1.666;2023-07-22T20:33:49;2.00;;;1.38;;
33987;SDS011;37428;53.580;-1.666;2023-07-22T20:36:51;0.77;;;0.70;;
33987;SDS011;37428;53.580;-1.666;2023-07-22T20:40:05;0.77;;;0.57;;
33987;SDS011;37428;53.580;-1.666;2023-07-22T20:43:08;1.02;;;0.60;;
33987;SDS011;37428;53.580;-1.666;2023-07-22T20:46:16;0.90;;;0.68;;
33987;SDS011;37428;53.580;-1.666;2023-07-22T20:49:20;1.20;;;0.70;;
33987;SDS011;37428;53.580;-1.666;2023-07-22T20:52:37;0.90;;;0.60;;
33987;SDS011;37428;53.580;-1.666;2023-07-22T20:55:40;1.50;;;0.63;;
33987;SDS011;37428;53.580;-1.666;2023-07-22T20:58:44;0.68;;;0.68;;
33987;SDS011;37428;53.580;-1.666;2023-07-22T21:02:00;1.33;;;0.88;;
33987;SDS011;37428;53.580;-1.666;2023-07-22T21:05:03;1.35;;;1.25;;
33987;SDS011;37428;53.580;-1.666;2023-07-22T21:08:06;1.60;;;1.00;;